createdAt,value
2018-09-20T00:00:19.419Z,21.20
2018-09-20T00:02:50.632Z,21.10
2018-09-20T00:05:21.782Z,21.10
2018-09-20T00:07:53.143Z,21.10
2018-09-20T00:10:24.395Z,21.10
2018-09-20T00:12:55.787Z,21.10
2018-09-20T00:15:27.604Z,21.00
2018-09-20T00:17:58.914Z,21.00
2018-09-20T00:20:29.910Z,20.90
2018-09-20T00:23:01.065Z,21.00
2018-09-20T00:25:32.327Z,21.00
2018-09-20T00:28:03.523Z,21.00
2018-09-20T00:30:35.393Z,20.80
2018-09-20T00:33:06.493Z,20.80
2018-09-20T00:35:37.823Z,20.80
2018-09-20T00:38:09.023Z,20.90
2018-09-20T00:40:40.029Z,20.80
2018-09-20T00:43:11.516Z,20.50
2018-09-20T00:45:43.095Z,20.30
2018-09-20T00:48:14.383Z,20.40
2018-09-20T00:50:45.563Z,20.40
2018-09-20T00:53:16.773Z,20.40
2018-09-20T00:55:47.959Z,20.50
2018-09-20T00:58:19.164Z,20.40
2018-09-20T01:00:50.159Z,20.20
2018-09-20T01:03:21.937Z,20.30
2018-09-20T01:05:53.124Z,20.30
2018-09-20T01:08:24.499Z,20.40
2018-09-20T01:10:56.763Z,20.30
2018-09-20T01:13:27.955Z,20.20
2018-09-20T01:15:59.725Z,20.00
2018-09-20T01:18:30.828Z,20.10
2018-09-20T01:21:02.081Z,20.10
2018-09-20T01:23:33.474Z,20.10
2018-09-20T01:26:04.859Z,20.20
2018-09-20T01:28:36.208Z,20.30
2018-09-20T01:31:07.399Z,20.00
2018-09-20T01:33:38.876Z,19.90
2018-09-20T01:36:10.047Z,19.80
2018-09-20T01:38:41.414Z,19.90
2018-09-20T01:41:12.542Z,19.90
2018-09-20T01:43:44.039Z,19.80
2018-09-20T01:46:15.158Z,19.70
2018-09-20T01:48:47.317Z,19.80
2018-09-20T01:51:18.501Z,19.80
2018-09-20T01:53:49.924Z,19.70
2018-09-20T01:56:21.556Z,19.70
2018-09-20T01:58:52.672Z,19.80
2018-09-20T02:01:23.843Z,19.70
2018-09-20T02:03:55.059Z,19.50
2018-09-20T02:06:26.134Z,19.40
2018-09-20T02:08:57.243Z,19.50
2018-09-20T02:11:28.523Z,19.60
2018-09-20T02:13:59.819Z,19.70
2018-09-20T02:16:30.876Z,19.60
2018-09-20T02:19:02.222Z,19.50
2018-09-20T02:21:33.381Z,19.40
2018-09-20T02:24:04.383Z,19.50
2018-09-20T02:26:35.556Z,19.60
2018-09-20T02:29:06.578Z,19.50
2018-09-20T02:31:37.676Z,19.40
2018-09-20T02:34:08.784Z,19.40
2018-09-20T02:36:40.260Z,19.30
2018-09-20T02:39:11.381Z,19.30
2018-09-20T02:41:42.530Z,19.20
2018-09-20T02:44:14.018Z,19.30
2018-09-20T02:46:45.171Z,19.50
2018-09-20T02:49:16.469Z,19.50
2018-09-20T02:51:47.671Z,19.20
2018-09-20T02:54:18.859Z,19.00
2018-09-20T02:56:50.044Z,19.10
2018-09-20T02:59:21.287Z,19.30
2018-09-20T03:01:52.479Z,19.40
2018-09-20T03:04:23.863Z,19.20
2018-09-20T03:06:55.915Z,19.10
2018-09-20T03:09:27.204Z,19.00
2018-09-20T03:11:58.428Z,19.00
2018-09-20T03:14:29.378Z,19.00
2018-09-20T03:17:01.176Z,19.10
2018-09-20T03:19:32.383Z,19.20
2018-09-20T03:22:04.103Z,19.10
2018-09-20T03:24:35.352Z,18.90
2018-09-20T03:27:06.394Z,19.00
2018-09-20T03:29:38.002Z,18.90
2018-09-20T03:32:09.335Z,18.90
2018-09-20T03:34:40.751Z,18.80
2018-09-20T03:37:11.935Z,18.70
2018-09-20T03:39:43.284Z,18.80
2018-09-20T03:42:14.487Z,18.80
2018-09-20T03:44:45.477Z,18.90
2018-09-20T03:47:16.711Z,18.80
2018-09-20T03:49:48.642Z,19.00
2018-09-20T03:52:19.816Z,19.10
2018-09-20T03:54:51.031Z,19.10
2018-09-20T03:57:22.516Z,19.10
2018-09-20T03:59:53.833Z,19.00
2018-09-20T04:02:25.795Z,18.80
2018-09-20T04:04:56.990Z,18.70
2018-09-20T04:07:28.695Z,18.60
2018-09-20T04:09:59.941Z,18.60
2018-09-20T04:12:31.391Z,18.50
2018-09-20T04:15:02.543Z,18.50
2018-09-20T04:17:33.904Z,18.30
2018-09-20T04:20:05.371Z,18.40
2018-09-20T04:22:37.151Z,18.50
2018-09-20T04:25:08.282Z,18.50
2018-09-20T04:27:39.251Z,18.60
2018-09-20T04:30:10.592Z,18.50
2018-09-20T04:32:42.066Z,18.60
2018-09-20T04:35:13.467Z,18.50
2018-09-20T04:37:44.840Z,18.60
2018-09-20T04:40:16.025Z,18.50
2018-09-20T04:42:47.307Z,18.60
2018-09-20T04:45:18.398Z,18.80
2018-09-20T04:47:49.398Z,18.70
2018-09-20T04:50:20.379Z,18.60
2018-09-20T04:52:51.375Z,18.60
2018-09-20T04:55:22.583Z,18.60
2018-09-20T04:57:53.811Z,18.70
2018-09-20T05:00:24.956Z,18.60
2018-09-20T05:02:56.462Z,18.70
2018-09-20T05:05:27.707Z,18.50
2018-09-20T05:07:58.853Z,18.20
2018-09-20T05:10:30.099Z,18.30
2018-09-20T05:13:02.065Z,18.40
2018-09-20T05:15:33.070Z,18.50
2018-09-20T05:18:04.518Z,18.50
2018-09-20T05:20:35.872Z,18.50
2018-09-20T05:23:06.855Z,18.70
2018-09-20T05:25:38.017Z,18.80
2018-09-20T05:28:10.113Z,18.80
2018-09-20T05:30:41.211Z,18.70
2018-09-20T05:33:12.447Z,18.60
2018-09-20T05:35:43.963Z,18.60
2018-09-20T05:38:15.062Z,18.60
2018-09-20T05:40:46.658Z,18.50
2018-09-20T05:43:17.968Z,18.60
2018-09-20T05:45:49.187Z,18.50
2018-09-20T05:48:20.543Z,18.40
2018-09-20T05:50:51.556Z,18.50
2018-09-20T05:53:22.722Z,18.60
2018-09-20T05:55:53.915Z,18.60
2018-09-20T05:58:25.119Z,18.40
2018-09-20T06:00:56.319Z,18.50
2018-09-20T06:03:27.300Z,18.50
2018-09-20T06:05:58.403Z,18.60
2018-09-20T06:08:29.999Z,18.60
2018-09-20T06:11:01.255Z,18.70
2018-09-20T06:13:32.643Z,18.70
2018-09-20T06:16:03.858Z,18.70
2018-09-20T06:18:34.845Z,18.70
2018-09-20T06:21:06.032Z,18.70
2018-09-20T06:23:37.191Z,18.80
2018-09-20T06:26:08.435Z,18.80
2018-09-20T06:28:39.826Z,18.70
2018-09-20T06:31:10.818Z,18.80
2018-09-20T06:33:42.016Z,18.90
2018-09-20T06:36:13.467Z,19.00
2018-09-20T06:38:44.608Z,19.00
2018-09-20T06:41:15.979Z,19.10
2018-09-20T06:43:48.340Z,19.10
2018-09-20T06:46:19.531Z,19.10
2018-09-20T06:48:50.924Z,19.20
2018-09-20T06:51:21.907Z,19.30
2018-09-20T06:53:52.910Z,19.30
2018-09-20T06:56:24.319Z,19.30
2018-09-20T06:58:55.661Z,19.20
2018-09-20T07:01:26.892Z,19.30
2018-09-20T07:03:58.067Z,19.30
2018-09-20T07:06:29.358Z,19.20
2018-09-20T07:09:00.448Z,19.30
2018-09-20T07:11:31.641Z,19.20
2018-09-20T07:14:03.128Z,19.30
2018-09-20T07:16:34.475Z,19.40
2018-09-20T07:19:05.925Z,19.30
2018-09-20T07:21:36.978Z,19.30
2018-09-20T07:24:08.028Z,19.30
2018-09-20T07:26:39.355Z,19.40
2018-09-20T07:29:11.386Z,19.40
2018-09-20T07:31:42.617Z,19.40
2018-09-20T07:34:14.066Z,19.50
2018-09-20T07:36:45.331Z,19.60
2018-09-20T07:39:16.718Z,19.60
2018-09-20T07:41:48.101Z,19.60
2018-09-20T07:44:19.280Z,19.70
2018-09-20T07:46:50.299Z,19.80
2018-09-20T07:49:21.507Z,19.80
2018-09-20T07:51:52.968Z,19.80
2018-09-20T07:54:24.723Z,19.80
2018-09-20T07:56:55.855Z,19.80
2018-09-20T07:59:27.409Z,19.90
2018-09-20T08:01:58.502Z,19.90
2018-09-20T08:04:29.596Z,20.00
2018-09-20T08:07:00.648Z,20.10
2018-09-20T08:09:32.054Z,20.10
2018-09-20T08:12:03.446Z,20.20
2018-09-20T08:14:34.903Z,20.30
2018-09-20T08:17:05.976Z,20.30
2018-09-20T08:19:37.018Z,20.40
2018-09-20T08:22:08.216Z,20.40
2018-09-20T08:24:39.778Z,20.50
2018-09-20T08:27:11.148Z,20.60
2018-09-20T08:29:42.368Z,20.60
2018-09-20T08:32:13.568Z,20.80
2018-09-20T08:34:44.930Z,20.80
2018-09-20T08:37:16.147Z,20.80
2018-09-20T08:39:47.454Z,21.00
2018-09-20T08:42:18.723Z,21.00
2018-09-20T08:44:50.048Z,21.40
2018-09-20T08:47:21.257Z,21.40
2018-09-20T08:49:52.236Z,21.50
2018-09-20T08:52:23.744Z,21.60
2018-09-20T08:54:55.287Z,21.80
2018-09-20T08:57:26.636Z,22.20
2018-09-20T08:59:57.796Z,22.20
2018-09-20T09:02:29.005Z,23.00
2018-09-20T09:05:00.359Z,23.10
2018-09-20T09:07:31.536Z,23.20
2018-09-20T09:10:02.789Z,23.40
2018-09-20T09:12:34.167Z,24.30
2018-09-20T09:15:05.583Z,25.20
2018-09-20T09:17:36.932Z,25.80
2018-09-20T09:20:08.420Z,26.10
2018-09-20T09:22:39.770Z,25.40
2018-09-20T09:25:11.090Z,25.90
2018-09-20T09:27:42.056Z,26.00
2018-09-20T09:30:13.103Z,26.40
2018-09-20T09:32:44.260Z,25.40
2018-09-20T09:35:15.507Z,25.00
2018-09-20T09:37:46.635Z,25.60
2018-09-20T09:40:17.845Z,27.20
2018-09-20T09:42:49.023Z,28.00
2018-09-20T09:45:20.236Z,27.50
2018-09-20T09:47:51.231Z,26.80
2018-09-20T09:50:22.424Z,27.10
2018-09-20T09:52:53.959Z,26.50
2018-09-20T09:55:25.685Z,27.30
2018-09-20T09:57:57.239Z,27.90
2018-09-20T10:00:35.631Z,27.70
2018-09-20T10:03:07.312Z,27.40
2018-09-20T10:05:38.896Z,27.90
2018-09-20T10:08:10.422Z,29.00
2018-09-20T10:10:41.811Z,28.80
2018-09-20T10:13:13.212Z,28.40
2018-09-20T10:15:45.039Z,28.40
2018-09-20T10:18:16.322Z,29.80
2018-09-20T10:20:47.555Z,30.10
2018-09-20T10:23:18.874Z,30.20
2018-09-20T10:25:50.119Z,30.70
2018-09-20T10:28:21.506Z,30.20
2018-09-20T10:30:53.020Z,29.30
2018-09-20T10:33:24.095Z,29.60
2018-09-20T10:35:55.559Z,30.00
2018-09-20T10:38:27.323Z,30.70
2018-09-20T10:40:58.629Z,31.30
2018-09-20T10:43:29.796Z,31.30
2018-09-20T10:46:01.044Z,32.30
2018-09-20T10:48:32.704Z,31.70
2018-09-20T10:51:03.844Z,32.00
2018-09-20T10:53:35.568Z,31.50
2018-09-20T10:56:06.971Z,32.70
2018-09-20T10:58:37.997Z,32.70
2018-09-20T11:01:09.404Z,32.80
2018-09-20T11:03:40.752Z,33.50
2018-09-20T11:06:12.140Z,33.40
2018-09-20T11:08:43.334Z,33.80
2018-09-20T11:11:14.699Z,33.20
2018-09-20T11:13:46.298Z,33.00
2018-09-20T11:16:17.304Z,33.40
2018-09-20T11:18:48.488Z,34.00
2018-09-20T11:21:19.531Z,33.20
2018-09-20T11:23:50.832Z,33.30
2018-09-20T11:26:22.040Z,33.50
2018-09-20T11:28:53.051Z,34.00
2018-09-20T11:31:24.405Z,33.00
2018-09-20T11:33:55.649Z,33.50
2018-09-20T11:36:27.063Z,33.50
2018-09-20T11:38:58.862Z,33.90
2018-09-20T11:41:30.463Z,33.80
2018-09-20T11:44:01.679Z,33.40
2018-09-20T11:46:32.929Z,34.20
2018-09-20T11:49:04.151Z,34.90
2018-09-20T11:51:35.512Z,35.60
2018-09-20T11:54:06.813Z,34.60
2018-09-20T11:56:38.716Z,34.60
2018-09-20T11:59:09.904Z,34.90
2018-09-20T12:01:41.074Z,34.20
2018-09-20T12:04:12.529Z,33.40
2018-09-20T12:06:44.361Z,32.90
2018-09-20T12:09:15.452Z,34.20
2018-09-20T12:11:46.659Z,34.50
2018-09-20T12:14:18.315Z,35.00
2018-09-20T12:16:49.606Z,35.10
2018-09-20T12:19:20.971Z,34.00
2018-09-20T12:21:52.223Z,32.80
2018-09-20T12:24:23.547Z,34.60
2018-09-20T12:26:54.791Z,35.00
2018-09-20T12:29:25.955Z,35.80
2018-09-20T12:31:57.028Z,36.10
2018-09-20T12:34:28.190Z,35.10
2018-09-20T12:36:59.335Z,34.90
2018-09-20T12:39:30.581Z,35.30
2018-09-20T12:42:01.929Z,35.40
2018-09-20T12:44:33.238Z,33.70
2018-09-20T12:47:04.508Z,34.70
2018-09-20T12:49:35.503Z,34.20
2018-09-20T12:52:06.538Z,34.20
2018-09-20T12:54:37.745Z,33.70
2018-09-20T12:57:08.892Z,34.30
2018-09-20T12:59:40.739Z,35.30
2018-09-20T13:02:12.077Z,35.70
2018-09-20T13:04:43.415Z,35.10
2018-09-20T13:07:14.631Z,34.80
2018-09-20T13:09:46.150Z,35.30
2018-09-20T13:12:17.692Z,35.90
2018-09-20T13:14:48.993Z,36.20
2018-09-20T13:17:20.664Z,35.60
2018-09-20T13:19:51.976Z,35.20
2018-09-20T13:22:23.339Z,34.50
2018-09-20T13:24:54.331Z,34.50
2018-09-20T13:27:25.363Z,34.70
2018-09-20T13:29:56.876Z,34.50
2018-09-20T13:32:28.788Z,34.80
2018-09-20T13:35:00.087Z,33.80
2018-09-20T13:37:31.296Z,34.10
2018-09-20T13:40:03.342Z,35.10
2018-09-20T13:42:34.956Z,34.30
2018-09-20T13:45:06.728Z,33.90
2018-09-20T13:47:38.815Z,33.60
2018-09-20T13:50:09.920Z,34.60
2018-09-20T13:52:41.478Z,34.30
2018-09-20T13:55:12.772Z,33.80
2018-09-20T13:57:43.777Z,33.90
2018-09-20T14:00:15.217Z,33.10
2018-09-20T14:02:46.325Z,33.20
2018-09-20T14:05:17.569Z,33.60
2018-09-20T14:07:48.918Z,34.20
2018-09-20T14:10:20.164Z,33.00
2018-09-20T14:12:51.305Z,33.00
2018-09-20T14:15:22.824Z,32.40
2018-09-20T14:17:53.955Z,32.10
2018-09-20T14:20:25.086Z,32.20
2018-09-20T14:22:56.810Z,32.00
2018-09-20T14:25:28.344Z,31.90
2018-09-20T14:27:59.437Z,32.90
2018-09-20T14:30:30.499Z,33.20
2018-09-20T14:33:01.890Z,33.50
2018-09-20T14:35:33.034Z,34.00
2018-09-20T14:38:04.884Z,34.00
2018-09-20T14:40:36.257Z,33.80
2018-09-20T14:43:08.248Z,33.70
2018-09-20T14:45:39.604Z,33.60
2018-09-20T14:48:11.252Z,33.90
2018-09-20T14:50:42.344Z,33.70
2018-09-20T14:53:13.719Z,33.50
2018-09-20T14:55:45.158Z,33.20
2018-09-20T14:58:16.616Z,32.50
2018-09-20T15:00:48.304Z,32.90
2018-09-20T15:03:20.065Z,32.30
2018-09-20T15:05:51.310Z,32.90
2018-09-20T15:08:22.664Z,32.70
2018-09-20T15:10:54.316Z,32.20
2018-09-20T15:13:25.630Z,32.10
2018-09-20T15:15:56.812Z,32.40
2018-09-20T15:18:27.971Z,32.10
2018-09-20T15:20:59.198Z,32.30
2018-09-20T15:23:30.415Z,32.00
2018-09-20T15:26:01.692Z,32.60
2018-09-20T15:28:32.951Z,32.50
2018-09-20T15:31:04.187Z,32.60
2018-09-20T15:33:35.582Z,32.20
2018-09-20T15:36:06.902Z,32.30
2018-09-20T15:38:37.946Z,31.90
2018-09-20T15:41:09.855Z,31.80
2018-09-20T15:43:41.387Z,31.80
2018-09-20T15:46:12.487Z,32.00
2018-09-20T15:48:43.682Z,32.10
2018-09-20T15:51:15.047Z,32.20
2018-09-20T15:53:46.496Z,32.30
2018-09-20T15:56:17.643Z,32.00
2018-09-20T15:58:48.819Z,32.20
2018-09-20T16:01:21.075Z,31.90
2018-09-20T16:03:52.403Z,32.10
2018-09-20T16:06:23.532Z,32.00
2018-09-20T16:08:54.593Z,31.80
2018-09-20T16:11:25.923Z,31.90
2018-09-20T16:13:57.013Z,31.90
2018-09-20T16:16:28.567Z,32.10
2018-09-20T16:18:59.735Z,32.00
2018-09-20T16:21:32.147Z,31.80
2018-09-20T16:24:03.320Z,31.90
2018-09-20T16:26:34.679Z,31.90
2018-09-20T16:29:42.143Z,31.90
2018-09-20T16:33:03.198Z,31.80
2018-09-20T16:35:50.837Z,31.70
2018-09-20T16:38:41.832Z,31.60
2018-09-20T16:41:17.032Z,31.60
2018-09-20T16:43:48.386Z,31.40
2018-09-20T16:46:19.635Z,31.20
2018-09-20T16:48:50.844Z,31.10
2018-09-20T16:51:22.331Z,31.00
2018-09-20T16:53:53.681Z,31.10
2018-09-20T16:56:25.011Z,31.00
2018-09-20T16:58:56.432Z,31.00
2018-09-20T17:01:27.760Z,30.90
2018-09-20T17:03:58.972Z,31.00
2018-09-20T17:06:29.972Z,31.00
2018-09-20T17:09:00.990Z,30.90
2018-09-20T17:11:32.353Z,30.90
2018-09-20T17:14:03.482Z,30.80
2018-09-20T17:16:34.847Z,30.80
2018-09-20T17:19:06.041Z,30.70
2018-09-20T17:21:37.330Z,30.70
2018-09-20T17:24:08.466Z,30.60
2018-09-20T17:26:39.678Z,30.30
2018-09-20T17:29:10.672Z,30.20
2018-09-20T17:31:41.866Z,30.20
2018-09-20T17:34:12.905Z,30.20
2018-09-20T17:36:45.995Z,30.20
2018-09-20T17:39:18.915Z,30.20
2018-09-20T17:41:52.020Z,29.70
2018-09-20T17:44:23.171Z,29.40
2018-09-20T17:46:54.360Z,29.20
2018-09-20T17:49:25.336Z,29.00
2018-09-20T17:51:56.993Z,28.80
2018-09-20T17:54:29.075Z,28.60
2018-09-20T17:57:01.803Z,28.50
2018-09-20T17:59:33.457Z,28.50
2018-09-20T18:02:04.709Z,28.30
2018-09-20T18:04:35.807Z,28.20
2018-09-20T18:07:07.055Z,28.10
2018-09-20T18:09:38.427Z,27.80
2018-09-20T18:12:09.439Z,27.70
2018-09-20T18:14:40.835Z,27.70
2018-09-20T18:17:12.223Z,27.70
2018-09-20T18:19:43.362Z,27.50
2018-09-20T18:22:14.560Z,27.40
2018-09-20T18:24:45.780Z,27.30
2018-09-20T18:27:17.105Z,27.20
2018-09-20T18:29:48.527Z,27.00
2018-09-20T18:32:19.699Z,27.00
2018-09-20T18:34:50.951Z,26.80
2018-09-20T18:37:22.603Z,26.80
2018-09-20T18:39:53.863Z,26.70
2018-09-20T18:42:25.665Z,26.60
2018-09-20T18:44:56.976Z,26.50
2018-09-20T18:47:28.479Z,26.30
2018-09-20T18:49:59.698Z,26.00
2018-09-20T18:52:30.819Z,25.80
2018-09-20T18:55:02.044Z,25.80
2018-09-20T18:57:33.698Z,25.90
2018-09-20T19:00:05.192Z,25.80
2018-09-20T19:02:36.398Z,25.70
2018-09-20T19:05:07.648Z,25.50
2018-09-20T19:07:39.231Z,25.40
2018-09-20T19:10:10.547Z,25.50
2018-09-20T19:12:41.515Z,25.50
2018-09-20T19:15:13.395Z,25.50
2018-09-20T19:17:44.698Z,25.70
2018-09-20T19:20:15.908Z,25.70
2018-09-20T19:22:47.375Z,25.80
2018-09-20T19:25:18.792Z,25.40
2018-09-20T19:27:50.058Z,25.30
2018-09-20T19:30:21.439Z,25.30
2018-09-20T19:32:52.651Z,25.10
2018-09-20T19:35:23.883Z,25.10
2018-09-20T19:37:55.204Z,25.10
2018-09-20T19:40:26.223Z,25.00
2018-09-20T19:42:57.434Z,24.90
2018-09-20T19:45:28.696Z,24.90
2018-09-20T19:47:59.761Z,24.80
2018-09-20T19:50:30.802Z,24.60
2018-09-20T19:53:02.256Z,24.40
2018-09-20T19:55:33.567Z,24.40
2018-09-20T19:58:04.554Z,24.20
2018-09-20T20:00:36.424Z,24.30
2018-09-20T20:03:07.851Z,24.30
2018-09-20T20:05:39.520Z,24.40
2018-09-20T20:08:10.753Z,24.40
2018-09-20T20:10:42.163Z,24.40
2018-09-20T20:13:13.260Z,24.20
2018-09-20T20:15:44.555Z,24.20
2018-09-20T20:18:15.859Z,24.10
2018-09-20T20:20:47.053Z,24.20
2018-09-20T20:23:18.232Z,24.20
2018-09-20T20:25:49.427Z,24.20
2018-09-20T20:28:20.916Z,24.10
2018-09-20T20:30:52.242Z,23.90
2018-09-20T20:33:23.418Z,24.00
2018-09-20T20:35:54.787Z,24.00
2018-09-20T20:38:25.817Z,24.10
2018-09-20T20:40:57.159Z,24.00
2018-09-20T20:43:28.374Z,24.00
2018-09-20T20:45:59.410Z,23.90
2018-09-20T20:48:30.812Z,23.90
2018-09-20T20:51:02.174Z,23.90
2018-09-20T20:53:33.523Z,23.90
2018-09-20T20:56:04.745Z,23.90
2018-09-20T20:58:36.546Z,23.80
2018-09-20T21:01:07.854Z,23.70
2018-09-20T21:03:38.891Z,23.60
2018-09-20T21:06:10.292Z,23.60
2018-09-20T21:08:42.085Z,23.40
2018-09-20T21:11:13.624Z,23.50
2018-09-20T21:13:44.815Z,23.40
2018-09-20T21:16:16.060Z,23.40
2018-09-20T21:18:47.624Z,23.50
2018-09-20T21:21:19.052Z,23.40
2018-09-20T21:24:20.057Z,23.40
2018-09-20T21:26:51.261Z,23.40
2018-09-20T21:29:22.289Z,23.30
2018-09-20T21:31:53.631Z,23.20
2018-09-20T21:34:24.795Z,23.00
2018-09-20T21:36:56.088Z,22.90
2018-09-20T21:39:27.443Z,23.10
2018-09-20T21:41:58.789Z,23.00
2018-09-20T21:44:30.234Z,22.90
2018-09-20T21:47:01.487Z,22.90
2018-09-20T21:49:32.771Z,22.90
2018-09-20T21:52:03.955Z,22.90
2018-09-20T21:54:35.155Z,22.90
2018-09-20T21:57:07.160Z,22.80
2018-09-20T21:59:38.507Z,22.70
2018-09-20T22:02:09.685Z,22.60
2018-09-20T22:04:40.871Z,22.50
2018-09-20T22:07:11.911Z,22.50
2018-09-20T22:09:43.355Z,22.40
2018-09-20T22:12:14.499Z,22.40
2018-09-20T22:14:45.948Z,22.30
2018-09-20T22:17:17.095Z,22.20
2018-09-20T22:19:48.339Z,22.30
2018-09-20T22:22:19.607Z,22.30
2018-09-20T22:24:50.799Z,22.30
2018-09-20T22:27:21.998Z,22.20
2018-09-20T22:29:53.323Z,22.10
2018-09-20T22:32:24.583Z,22.30
2018-09-20T22:34:55.777Z,22.10
2018-09-20T22:37:26.960Z,22.10
2018-09-20T22:39:57.971Z,22.00
2018-09-20T22:42:29.044Z,22.00
2018-09-20T22:45:00.312Z,22.00
2018-09-20T22:47:31.439Z,22.00
2018-09-20T22:50:02.743Z,21.80
2018-09-20T22:52:34.811Z,21.70
2018-09-20T22:55:06.095Z,21.70
2018-09-20T22:57:37.263Z,21.70
2018-09-20T23:00:08.964Z,21.70
2018-09-20T23:02:39.907Z,21.70
2018-09-20T23:05:11.922Z,21.70
2018-09-20T23:07:43.239Z,21.60
2018-09-20T23:10:14.624Z,21.60
2018-09-20T23:12:46.012Z,21.50
2018-09-20T23:15:17.203Z,21.50
2018-09-20T23:17:48.872Z,21.50
2018-09-20T23:20:20.347Z,21.50
2018-09-20T23:22:51.547Z,21.50
2018-09-20T23:25:22.795Z,21.60
2018-09-20T23:27:54.145Z,21.50
2018-09-20T23:30:25.227Z,21.50
2018-09-20T23:32:56.398Z,21.40
2018-09-20T23:35:27.526Z,21.40
2018-09-20T23:37:58.719Z,21.40
2018-09-20T23:40:29.728Z,21.20
2018-09-20T23:43:00.914Z,21.30
2018-09-20T23:45:32.103Z,21.20
2018-09-20T23:48:03.302Z,20.80
2018-09-20T23:50:34.304Z,20.40
2018-09-20T23:53:05.535Z,20.40
2018-09-20T23:55:36.897Z,20.40
2018-09-20T23:58:08.083Z,20.30
